Arlington, New Jersey
Current Conditions -  °F | °C
As of 4:51 AM on Friday 28 Nov 2014 (Local Time) from KEWR Reporting Station
Scattered Clouds Scattered Clouds  
Wind Chill: 24°   Ceiling: Unl
Heat Index: 29°   Visibility: 10mi
Dew Point: 22°   Wind: 5mph
Humidity: 75%   Direction: 290°WNW
Pressure: 30.1"   Gusts: NA
Location:  40.7563°N, 74.1217°W
Report Text: KEWR 280951Z 29004KT 10SM FEW090 SCT200 M02/M06 A3010 RMK AO2 SLP193 T10171056 $
Loading
Personal Weather Stations






























Interactive Weather Map New forecast layout! Learn more

10-Day Weather Forecast

Advertisements
Track Severe Weather on mobile